Time;durP1;ratioP1;P1;durP2;ratioP2;P2;SDS_P1;SDS_P2;PMS_P1;PMS_P2;Temp;Humidity;BMP_temperature;BMP_pressure;BME280_temperature;BME280_humidity;BME280_pressure;Samples;Min_cycle;Max_cycle;Signal;HPM_P1;HPM_P2
2022/03/10 00:01:42;;;;;;;10.03;7.47;;;1.90;99.90;;;;;;5058902;28;20196;-77
2022/03/10 00:04:08;;;;;;;12.13;7.20;;;1.90;99.90;;;;;;5056765;28;20408;-77
2022/03/10 00:06:33;;;;;;;12.40;7.17;;;1.90;1.00;;;;;;5054073;28;20265;-77
2022/03/10 00:08:59;;;;;;;15.60;7.30;;;1.90;1.00;;;;;;5070288;28;20190;-77
2022/03/10 00:11:24;;;;;;;10.70;7.27;;;1.80;1.00;;;;;;5074085;28;20202;-76
2022/03/10 00:13:50;;;;;;;12.13;7.70;;;1.80;99.90;;;;;;5075326;28;20174;-76
2022/03/10 00:16:16;;;;;;;11.30;7.43;;;1.80;99.90;;;;;;5075202;28;20647;-77
2022/03/10 00:18:41;;;;;;;14.43;7.60;;;1.80;99.90;;;;;;5062514;28;20172;-77
2022/03/10 00:21:07;;;;;;;11.07;6.97;;;1.70;1.00;;;;;;5054857;28;20196;-77
2022/03/10 00:23:32;;;;;;;10.40;7.67;;;1.70;1.00;;;;;;5054902;28;20176;-76
2022/03/10 00:25:58;;;;;;;11.03;7.27;;;1.70;1.00;;;;;;5053519;28;20183;-76
2022/03/10 00:28:23;;;;;;;13.90;7.37;;;1.60;1.00;;;;;;5064024;28;20182;-77
2022/03/10 00:30:49;;;;;;;13.03;7.23;;;1.60;1.00;;;;;;5074858;28;20198;-77
2022/03/10 00:33:15;;;;;;;9.87;7.23;;;1.60;1.00;;;;;;5075005;28;20369;-76
2022/03/10 00:35:41;;;;;;;10.07;7.50;;;1.50;1.00;;;;;;5074710;28;20159;-76
2022/03/10 00:38:06;;;;;;;10.53;7.20;;;1.50;1.00;;;;;;5067499;28;20191;-76
2022/03/10 00:40:32;;;;;;;12.33;7.67;;;1.40;1.00;;;;;;5054710;28;20175;-76
2022/03/10 00:42:58;;;;;;;10.03;7.53;;;1.50;1.00;;;;;;5054452;28;20518;-76
2022/03/10 00:45:25;;;;;;;13.00;7.70;;;1.40;1.00;;;;;;5053190;28;20175;-76
2022/03/10 00:47:51;;;;;;;9.93;6.97;;;1.40;1.00;;;;;;5058676;28;20178;-77
2022/03/10 00:50:17;;;;;;;11.23;7.70;;;1.40;1.00;;;;;;5074321;28;20308;-76
2022/03/10 00:52:47;;;;;;;11.27;7.83;;;1.30;33.80;;;;;;5074220;28;20285;-77
2022/03/10 00:55:15;;;;;;;10.07;6.63;;;1.30;99.90;;;;;;5073051;28;20175;-76
2022/03/10 00:57:41;;;;;;;10.43;7.33;;;1.30;99.90;;;;;;5069809;28;20187;-77
2022/03/10 01:00:08;;;;;;;10.40;6.23;;;1.30;1.00;;;;;;5054128;28;20180;-77
2022/03/10 01:02:34;;;;;;;9.77;6.53;;;1.20;1.00;;;;;;5054025;28;20210;-77
2022/03/10 01:05:00;;;;;;;9.50;6.77;;;1.20;99.90;;;;;;5054144;28;20191;-76
2022/03/10 01:07:26;;;;;;;10.07;7.07;;;1.20;1.00;;;;;;5054472;28;20542;-77
2022/03/10 01:09:52;;;;;;;11.40;7.40;;;1.10;1.00;;;;;;5074005;28;20163;-77
2022/03/10 01:12:17;;;;;;;11.80;7.83;;;1.10;99.90;;;;;;5073810;28;20241;-77
2022/03/10 01:14:43;;;;;;;10.57;7.07;;;1.10;1.00;;;;;;5074224;28;20167;-77
2022/03/10 01:17:09;;;;;;;9.63;7.03;;;1.00;1.00;;;;;;5072812;28;20261;-76
2022/03/10 01:19:34;;;;;;;14.10;8.60;;;1.00;1.00;;;;;;5063939;28;20665;-77
2022/03/10 01:22:00;;;;;;;17.07;8.10;;;0.90;99.90;;;;;;5052479;28;20187;-77
2022/03/10 01:24:25;;;;;;;10.87;7.93;;;0.90;99.90;;;;;;5052675;28;20654;-77
2022/03/10 01:26:51;;;;;;;12.17;7.40;;;0.90;1.00;;;;;;5054012;28;20186;-76
2022/03/10 01:29:17;;;;;;;10.20;7.07;;;0.90;1.00;;;;;;5057974;28;20243;-77
2022/03/10 01:31:42;;;;;;;16.60;8.40;;;0.90;1.00;;;;;;5073473;28;20226;-76
2022/03/10 01:34:08;;;;;;;9.83;7.20;;;0.90;99.90;;;;;;5073544;28;20186;-76
2022/03/10 01:36:33;;;;;;;11.73;7.67;;;0.80;1.00;;;;;;5073831;28;20175;-76
2022/03/10 01:39:03;;;;;;;12.70;8.53;;;0.80;99.90;;;;;;5071080;28;20183;-77
2022/03/10 01:41:28;;;;;;;11.90;7.70;;;0.80;1.00;;;;;;5053634;28;20199;-76
2022/03/10 01:43:56;;;;;;;12.67;8.17;;;0.70;33.20;;;;;;5053539;28;20242;-76
2022/03/10 01:46:22;;;;;;;10.77;7.60;;;0.70;24.10;;;;;;5052047;28;20649;-77
2022/03/10 01:48:47;;;;;;;14.10;8.33;;;0.70;1.00;;;;;;5051972;28;20233;-77
2022/03/10 01:51:13;;;;;;;12.43;8.43;;;0.70;1.00;;;;;;5071525;28;21222;-76
2022/03/10 01:53:39;;;;;;;12.77;8.57;;;0.60;99.90;;;;;;5073379;28;20195;-77
2022/03/10 01:56:05;;;;;;;11.00;8.10;;;0.60;99.90;;;;;;5089886;23;20264;-78
2022/03/10 01:58:31;;;;;;;12.73;8.30;;;0.60;1.00;;;;;;5076407;28;20179;-78
2022/03/10 02:00:57;;;;;;;14.23;8.80;;;0.60;1.00;;;;;;5075466;28;20546;-78
2022/03/10 02:03:22;;;;;;;11.63;7.70;;;0.60;1.00;;;;;;5077048;28;20170;-77
2022/03/10 02:05:48;;;;;;;12.20;8.20;;;0.50;99.90;;;;;;5067928;28;20595;-78
2022/03/10 02:10:58;;;;;;;11.47;7.70;;;0.50;99.90;;;;;;5056988;28;20309;-78
2022/03/10 02:13:24;;;;;;;12.20;8.33;;;0.50;99.90;;;;;;5055485;28;20192;-78
2022/03/10 02:18:33;;;;;;;12.20;8.27;;;0.40;99.90;;;;;;5057011;28;20163;-78
2022/03/10 02:20:59;;;;;;;12.33;7.87;;;0.40;99.90;;;;;;5057043;28;20182;-78
2022/03/10 02:23:25;;;;;;;13.73;8.10;;;0.40;1.00;;;;;;5057844;28;20222;-78
2022/03/10 02:25:50;;;;;;;11.57;7.50;;;0.40;99.90;;;;;;5057358;28;20219;-78
2022/03/10 02:28:17;;;;;;;12.83;8.17;;;0.40;1.00;;;;;;5055920;28;20194;-78
2022/03/10 02:30:42;;;;;;;12.53;8.17;;;0.40;99.90;;;;;;5057636;28;20616;-78
2022/03/10 02:33:08;;;;;;;11.87;8.07;;;0.30;1.00;;;;;;5057905;28;20180;-77
2022/03/10 02:35:34;;;;;;;13.70;8.90;;;0.30;99.90;;;;;;5058597;28;20597;-78
2022/03/10 02:38:00;;;;;;;11.47;7.53;;;0.30;1.00;;;;;;5058171;28;20171;-79
2022/03/10 02:40:26;;;;;;;12.43;8.57;;;0.30;99.90;;;;;;5057486;28;20225;-78
2022/03/10 02:42:52;;;;;;;11.97;8.30;;;0.30;1.00;;;;;;5057406;28;20530;-78
2022/03/10 02:45:17;;;;;;;13.67;8.30;;;0.30;1.00;;;;;;5058492;28;20256;-78
2022/03/10 02:47:43;;;;;;;12.03;7.67;;;0.30;99.90;;;;;;5056205;28;20174;-77
2022/03/10 02:50:09;;;;;;;13.20;7.70;;;0.20;1.00;;;;;;5054777;28;20537;-78
2022/03/10 02:52:38;;;;;;;13.23;8.53;;;0.20;1.00;;;;;;5056174;28;20210;-78
2022/03/10 02:55:06;;;;;;;13.80;9.00;;;0.20;1.00;;;;;;5056357;28;20689;-77
2022/03/10 02:57:32;;;;;;;12.57;8.97;;;0.20;99.90;;;;;;5055529;28;20672;-78
2022/03/10 02:59:59;;;;;;;15.63;8.53;;;0.10;1.00;;;;;;5056333;28;20233;-78
2022/03/10 03:02:25;;;;;;;13.63;8.23;;;0.10;99.90;;;;;;5056551;28;20241;-78
2022/03/10 03:04:51;;;;;;;17.07;8.40;;;0.10;99.90;;;;;;5054333;28;20182;-78
2022/03/10 03:07:17;;;;;;;15.93;9.60;;;0.10;1.00;;;;;;5054127;28;20206;-78
2022/03/10 03:09:43;;;;;;;13.20;9.13;;;0.00;99.90;;;;;;5054296;28;20182;-78
2022/03/10 03:12:08;;;;;;;12.57;8.40;;;0.00;1.00;;;;;;5056244;28;20269;-78
2022/03/10 03:14:34;;;;;;;12.53;8.50;;;-0.10;86.20;;;;;;5054291;28;20532;-77
2022/03/10 03:16:59;;;;;;;14.70;9.13;;;-0.10;99.90;;;;;;5055536;28;20214;-78
2022/03/10 03:19:25;;;;;;;13.77;8.73;;;-0.10;99.90;;;;;;5055679;28;20193;-77
2022/03/10 03:21:51;;;;;;;14.20;8.47;;;0.00;34.90;;;;;;5055404;28;20183;-78
2022/03/10 03:24:18;;;;;;;12.57;8.63;;;0.00;1.00;;;;;;5056528;28;20254;-78
2022/03/10 03:26:44;;;;;;;13.00;8.33;;;0.00;1.00;;;;;;5054545;28;20700;-78
2022/03/10 03:29:10;;;;;;;11.67;8.30;;;0.00;1.00;;;;;;5056276;28;20182;-78
2022/03/10 03:31:37;;;;;;;12.60;8.70;;;0.00;1.00;;;;;;5054585;28;20199;-77
2022/03/10 03:34:09;;;;;;;12.73;8.53;;;0.00;1.00;;;;;;5056127;28;20228;-78
2022/03/10 03:36:38;;;;;;;14.00;8.83;;;0.00;1.00;;;;;;5055207;28;20203;-79
2022/03/10 03:39:05;;;;;;;15.10;8.20;;;0.00;40.00;;;;;;5057059;28;20193;-79
2022/03/10 03:41:31;;;;;;;13.13;8.37;;;0.00;99.90;;;;;;5058254;28;20198;-78
2022/03/10 03:43:56;;;;;;;15.57;8.23;;;-0.10;1.00;;;;;;5058709;28;20182;-78
2022/03/10 03:46:22;;;;;;;11.43;8.10;;;-0.10;34.70;;;;;;5061233;28;20198;-79
2022/03/10 03:48:47;;;;;;;14.10;7.73;;;-0.10;1.00;;;;;;5060363;28;20209;-80
2022/03/10 03:51:13;;;;;;;14.37;8.77;;;-0.10;1.00;;;;;;5039989;28;20250;-78
2022/03/10 03:53:38;;;;;;;10.97;7.97;;;-0.10;1.00;;;;;;5041241;28;20174;-77
2022/03/10 03:56:04;;;;;;;12.37;8.50;;;-0.10;69.10;;;;;;5057232;28;20218;-78
2022/03/10 03:58:29;;;;;;;15.17;8.50;;;-0.10;1.00;;;;;;5040664;28;20172;-76
2022/03/10 04:00:55;;;;;;;14.83;9.13;;;-0.10;64.10;;;;;;5056928;28;20206;-77
2022/03/10 04:03:22;;;;;;;14.10;9.57;;;-0.10;48.90;;;;;;5058097;28;20185;-77
2022/03/10 04:05:47;;;;;;;12.13;8.07;;;-0.20;99.90;;;;;;5060187;28;20214;-78
2022/03/10 04:08:14;;;;;;;13.60;8.80;;;-0.20;99.90;;;;;;5059364;28;20182;-77
2022/03/10 04:10:40;;;;;;;16.43;9.00;;;-0.30;99.90;;;;;;5060615;28;20198;-77
2022/03/10 04:13:05;;;;;;;12.77;8.77;;;-0.30;99.90;;;;;;5059853;28;20178;-78
2022/03/10 04:15:32;;;;;;;14.07;9.43;;;-0.30;1.00;;;;;;5058474;28;20574;-77
2022/03/10 04:17:58;;;;;;;16.63;10.10;;;-0.30;1.00;;;;;;5055876;28;20265;-76
2022/03/10 04:20:24;;;;;;;13.77;9.07;;;-0.40;1.00;;;;;;5054352;28;20674;-77
2022/03/10 04:22:50;;;;;;;16.03;8.87;;;-0.40;99.90;;;;;;5054183;28;20214;-76
2022/03/10 04:25:16;;;;;;;13.27;8.60;;;-0.40;1.00;;;;;;5055893;28;20205;-77
2022/03/10 04:27:41;;;;;;;16.47;8.57;;;-0.40;1.00;;;;;;5057505;28;20171;-77
2022/03/10 04:30:08;;;;;;;12.97;8.07;;;-0.50;99.90;;;;;;5054784;28;20656;-77
2022/03/10 04:32:44;;;;;;;16.57;9.17;;;-0.50;1.00;;;;;;5056000;28;20213;-76
2022/03/10 04:35:17;;;;;;;13.87;8.33;;;-0.50;1.00;;;;;;5057872;28;20202;-77
2022/03/10 04:37:44;;;;;;;19.63;9.80;;;-0.60;1.00;;;;;;5056866;28;20154;-76
2022/03/10 04:40:11;;;;;;;15.43;9.13;;;-0.60;1.00;;;;;;5055126;28;20206;-76
2022/03/10 04:42:38;;;;;;;14.43;9.00;;;-0.60;1.00;;;;;;5054804;28;20666;-76
2022/03/10 04:45:05;;;;;;;16.83;8.37;;;-0.60;1.00;;;;;;5053656;28;20201;-76
2022/03/10 04:47:30;;;;;;;17.10;8.70;;;-0.60;99.90;;;;;;5054945;28;20188;-76
2022/03/10 04:49:57;;;;;;;22.77;9.27;;;-0.60;1.00;;;;;;5053640;28;20269;-77
2022/03/10 04:52:26;;;;;;;17.07;9.30;;;-0.60;1.00;;;;;;5054345;28;20195;-76
2022/03/10 04:54:51;;;;;;;17.93;9.70;;;-0.60;1.00;;;;;;5053465;28;20672;-76
2022/03/10 04:57:17;;;;;;;16.00;9.27;;;-0.60;1.00;;;;;;5055180;28;20182;-77
2022/03/10 04:59:43;;;;;;;14.53;10.20;;;-0.70;1.00;;;;;;5053662;28;20269;-76
2022/03/10 05:02:09;;;;;;;14.60;9.57;;;-0.70;1.00;;;;;;5053257;28;20261;-77
2022/03/10 05:04:34;;;;;;;20.87;10.70;;;-0.70;99.90;;;;;;5053542;28;20646;-76
2022/03/10 05:07:00;;;;;;;16.33;9.87;;;-0.70;1.00;;;;;;5054759;28;20763;-77
2022/03/10 05:09:25;;;;;;;15.60;9.50;;;-0.80;1.00;;;;;;5054954;28;20175;-76
2022/03/10 05:11:51;;;;;;;14.80;10.00;;;-0.80;99.90;;;;;;5054253;28;20217;-76
2022/03/10 05:14:16;;;;;;;13.93;8.93;;;-0.80;99.90;;;;;;5054836;28;20527;-77
2022/03/10 05:16:42;;;;;;;13.67;8.67;;;-0.80;1.00;;;;;;5055347;28;20260;-77
2022/03/10 05:19:07;;;;;;;16.37;9.70;;;-0.80;99.90;;;;;;5055710;28;20637;-77
2022/03/10 05:21:34;;;;;;;16.30;9.80;;;-0.90;99.90;;;;;;5055840;28;20541;-78
2022/03/10 05:24:00;;;;;;;17.40;9.47;;;-0.80;99.90;;;;;;5055212;28;20170;-77
2022/03/10 05:26:25;;;;;;;16.37;10.00;;;-0.90;1.00;;;;;;5054509;28;20601;-76
2022/03/10 05:28:51;;;;;;;17.23;9.47;;;-0.90;1.00;;;;;;5052797;28;20178;-76
2022/03/10 05:31:17;;;;;;;15.70;10.27;;;-0.90;1.00;;;;;;5055118;28;20204;-77
2022/03/10 05:33:42;;;;;;;17.20;9.70;;;-0.90;1.00;;;;;;5055785;28;20186;-77
2022/03/10 05:36:08;;;;;;;16.23;9.80;;;-0.90;1.00;;;;;;5053554;28;20194;-77
2022/03/10 05:38:33;;;;;;;13.67;9.57;;;-0.90;1.00;;;;;;5052954;28;20612;-76
2022/03/10 05:41:00;;;;;;;14.90;9.13;;;-0.90;1.00;;;;;;5054043;28;20264;-77
2022/03/10 05:43:26;;;;;;;16.87;9.83;;;-0.90;99.90;;;;;;5052709;28;20212;-77
2022/03/10 05:45:52;;;;;;;16.30;9.37;;;-0.90;99.90;;;;;;5054168;28;20196;-77
2022/03/10 05:48:17;;;;;;;16.67;10.23;;;-0.90;99.90;;;;;;5052580;28;20179;-76
2022/03/10 05:50:43;;;;;;;14.90;10.07;;;-0.90;99.90;;;;;;5054666;28;20197;-77
2022/03/10 05:53:09;;;;;;;14.87;9.83;;;-1.00;1.00;;;;;;5055727;28;20177;-77
2022/03/10 05:55:34;;;;;;;14.33;9.80;;;-1.00;1.00;;;;;;5055674;28;20567;-78
2022/03/10 05:58:00;;;;;;;15.33;10.33;;;-1.00;1.00;;;;;;5054548;28;20183;-79
2022/03/10 06:00:26;;;;;;;16.03;10.00;;;-1.00;1.00;;;;;;5056294;28;20202;-79
2022/03/10 06:02:52;;;;;;;15.20;9.53;;;-0.90;1.00;;;;;;5054797;28;20204;-79
2022/03/10 06:05:17;;;;;;;14.50;9.47;;;-0.90;1.00;;;;;;5056494;28;20197;-79
2022/03/10 06:07:43;;;;;;;15.70;9.90;;;-1.00;1.00;;;;;;5058528;28;20170;-79
2022/03/10 06:10:09;;;;;;;18.33;10.23;;;-1.00;1.00;;;;;;5057800;28;20194;-80
2022/03/10 06:12:34;;;;;;;13.97;9.23;;;-1.00;1.00;;;;;;5055301;28;20693;-78
2022/03/10 06:15:02;;;;;;;15.10;10.00;;;-1.00;1.00;;;;;;5053777;28;20577;-77
2022/03/10 06:17:29;;;;;;;14.43;10.20;;;-1.00;1.00;;;;;;5053131;28;20173;-77
2022/03/10 06:19:55;;;;;;;16.37;10.70;;;-0.90;1.00;;;;;;5056707;28;20169;-77
2022/03/10 06:22:23;;;;;;;15.40;10.50;;;-1.00;1.00;;;;;;5054545;28;20201;-77
2022/03/10 06:24:48;;;;;;;16.30;10.33;;;-1.00;1.00;;;;;;5051919;28;20186;-77
2022/03/10 06:27:15;;;;;;;16.37;10.73;;;-1.00;1.00;;;;;;5053528;28;20185;-77
2022/03/10 06:29:42;;;;;;;16.97;11.13;;;-1.00;1.00;;;;;;5053110;28;20257;-77
2022/03/10 06:32:09;;;;;;;17.33;10.43;;;-1.00;1.00;;;;;;5052989;28;20201;-76
2022/03/10 06:34:37;;;;;;;15.43;9.97;;;-1.00;1.00;;;;;;5052905;28;20252;-76
2022/03/10 06:37:03;;;;;;;14.00;10.20;;;-1.00;1.00;;;;;;5052912;28;20556;-77
2022/03/10 06:39:29;;;;;;;18.03;10.80;;;-1.00;1.00;;;;;;5053062;28;20565;-77
2022/03/10 06:41:55;;;;;;;20.97;11.17;;;-0.90;1.00;;;;;;5053023;28;20170;-76
2022/03/10 06:44:20;;;;;;;17.97;11.70;;;-0.90;1.00;;;;;;5052954;28;20199;-77
2022/03/10 06:46:46;;;;;;;19.00;10.70;;;-0.90;1.00;;;;;;5052891;28;20206;-77
2022/03/10 06:49:12;;;;;;;19.17;11.10;;;-0.90;99.90;;;;;;5052849;28;20258;-77
2022/03/10 06:51:38;;;;;;;20.33;11.20;;;-0.90;99.90;;;;;;5051505;28;20230;-76
2022/03/10 06:54:04;;;;;;;16.87;10.87;;;-0.80;99.90;;;;;;5053020;28;20708;-76
2022/03/10 06:56:30;;;;;;;17.90;11.53;;;-0.80;99.90;;;;;;5052724;28;20300;-76
2022/03/10 06:58:56;;;;;;;13.77;9.87;;;-0.80;99.90;;;;;;5053077;28;20175;-76
2022/03/10 07:01:21;;;;;;;19.13;11.13;;;-0.70;99.90;;;;;;5052755;28;20185;-77
2022/03/10 07:03:47;;;;;;;18.00;10.60;;;-0.70;99.90;;;;;;5053015;28;20586;-76
2022/03/10 07:06:13;;;;;;;16.70;11.23;;;-0.70;99.90;;;;;;5051416;28;20698;-77
2022/03/10 07:08:38;;;;;;;17.70;11.00;;;-0.70;99.90;;;;;;5052683;28;20176;-76
2022/03/10 07:11:04;;;;;;;18.20;11.50;;;-0.60;99.90;;;;;;5051577;28;20203;-77
2022/03/10 07:13:29;;;;;;;20.17;10.50;;;-0.60;99.90;;;;;;5051599;28;20171;-77
2022/03/10 07:15:55;;;;;;;16.40;10.90;;;-0.50;99.90;;;;;;5055400;28;20191;-77
2022/03/10 07:18:20;;;;;;;18.97;11.77;;;-0.50;99.90;;;;;;5055472;28;20213;-76
2022/03/10 07:20:47;;;;;;;17.20;10.93;;;-0.40;99.90;;;;;;5056763;28;20181;-77
2022/03/10 07:23:12;;;;;;;15.80;9.93;;;-0.30;99.90;;;;;;5055593;28;20181;-77
2022/03/10 07:25:38;;;;;;;15.97;10.30;;;-0.30;28.40;;;;;;5056751;28;20191;-77
2022/03/10 07:28:04;;;;;;;14.50;10.57;;;-0.20;1.00;;;;;;5055423;28;20188;-76
2022/03/10 07:30:30;;;;;;;17.80;11.37;;;-0.10;1.00;;;;;;5056445;28;20175;-76
2022/03/10 07:32:55;;;;;;;17.63;11.00;;;-0.10;1.00;;;;;;5056469;28;20642;-76
2022/03/10 07:35:21;;;;;;;16.17;11.17;;;0.00;99.90;;;;;;5056257;28;20210;-76
2022/03/10 07:37:48;;;;;;;15.30;10.33;;;0.10;99.90;;;;;;5054989;28;20173;-77
2022/03/10 07:40:14;;;;;;;17.50;11.13;;;0.20;1.00;;;;;;5056286;28;20195;-76
2022/03/10 07:42:40;;;;;;;17.10;10.97;;;0.40;1.00;;;;;;5056222;28;20232;-77
2022/03/10 07:45:06;;;;;;;21.03;11.53;;;0.50;1.00;;;;;;5054887;28;20574;-77
2022/03/10 07:47:32;;;;;;;16.50;9.83;;;0.60;99.90;;;;;;5054951;28;20228;-77
2022/03/10 07:49:57;;;;;;;15.03;9.30;;;0.80;99.90;;;;;;5056094;28;20183;-76
2022/03/10 07:52:23;;;;;;;17.60;9.80;;;1.00;1.00;;;;;;5054825;28;20281;-76
2022/03/10 07:54:48;;;;;;;13.10;9.03;;;1.20;1.00;;;;;;5054784;28;20176;-77
2022/03/10 07:57:14;;;;;;;15.93;10.13;;;1.40;99.90;;;;;;5045217;22;20257;-93
2022/03/10 07:59:40;;;;;;;14.13;9.00;;;1.60;1.00;;;;;;5031098;28;20181;-93
2022/03/10 08:02:05;;;;;;;14.73;8.93;;;1.80;1.00;;;;;;5032634;28;20184;-93
2022/03/10 08:04:31;;;;;;;15.83;9.50;;;2.10;99.90;;;;;;5037426;28;20256;-94
2022/03/10 08:06:56;;;;;;;15.37;8.83;;;2.30;16.20;;;;;;5033029;28;20211;-93
2022/03/10 08:09:22;;;;;;;14.47;8.93;;;2.50;1.00;;;;;;5038633;28;20265;-93
2022/03/10 08:11:47;;;;;;;13.20;8.77;;;2.80;99.90;;;;;;5039210;28;20296;-94
2022/03/10 08:14:13;;;;;;;14.20;9.57;;;3.10;99.90;;;;;;5038970;28;20187;-94
2022/03/10 08:16:40;;;;;;;12.90;8.27;;;3.30;99.90;;;;;;5036677;28;20180;-94
2022/03/10 08:19:08;;;;;;;15.60;9.00;;;3.40;1.00;;;;;;5035927;28;20181;-93
2022/03/10 08:21:34;;;;;;;13.13;8.33;;;3.70;1.00;;;;;;5037118;28;20161;-93
2022/03/10 08:23:59;;;;;;;13.60;8.43;;;4.10;1.00;;;;;;5037406;28;20248;-94
2022/03/10 08:26:26;;;;;;;12.93;8.47;;;4.10;99.90;;;;;;5037795;28;20223;-93
2022/03/10 08:28:52;;;;;;;15.47;8.77;;;4.30;1.00;;;;;;5039439;28;20169;-92
2022/03/10 08:31:19;;;;;;;14.70;9.20;;;4.50;99.90;;;;;;5039845;28;20217;-92
2022/03/10 08:33:46;;;;;;;19.77;9.50;;;4.60;99.90;;;;;;5040805;28;20173;-92
2022/03/10 08:36:11;;;;;;;19.73;9.30;;;4.90;1.00;;;;;;5039903;28;20205;-93
2022/03/10 08:38:37;;;;;;;15.87;9.80;;;5.00;1.00;;;;;;5039979;28;20193;-92
2022/03/10 08:41:03;;;;;;;16.53;9.33;;;5.20;1.00;;;;;;5036876;28;20200;-93
2022/03/10 08:43:31;;;;;;;13.77;8.87;;;5.40;1.00;;;;;;5033454;28;20208;-93
2022/03/10 08:45:57;;;;;;;14.97;9.70;;;5.60;1.00;;;;;;5035231;28;20192;-93
2022/03/10 08:48:22;;;;;;;15.37;9.57;;;5.90;1.00;;;;;;5034298;28;20181;-93
2022/03/10 08:50:48;;;;;;;17.07;9.37;;;6.00;99.90;;;;;;5033045;28;20243;-93
2022/03/10 08:53:14;;;;;;;13.93;9.13;;;6.20;99.90;;;;;;5035624;28;20245;-93
2022/03/10 08:55:39;;;;;;;15.43;9.30;;;6.30;99.90;;;;;;5033606;28;20201;-93
2022/03/10 08:58:05;;;;;;;15.87;10.07;;;6.50;99.90;;;;;;5033660;28;20188;-93
2022/03/10 09:00:31;;;;;;;17.43;9.57;;;6.60;99.90;;;;;;5032316;28;20173;-93
2022/03/10 09:02:57;;;;;;;14.40;9.80;;;6.80;99.90;;;;;;5031320;28;20165;-93
2022/03/10 09:05:23;;;;;;;16.50;10.00;;;6.90;99.90;;;;;;5033244;28;20204;-93
2022/03/10 09:07:48;;;;;;;20.80;10.00;;;7.10;99.90;;;;;;5031372;28;20187;-93
2022/03/10 09:10:14;;;;;;;18.10;10.40;;;7.30;99.90;;;;;;5033209;28;20175;-93
2022/03/10 09:12:40;;;;;;;16.50;10.27;;;7.60;80.60;;;;;;5035431;28;20204;-93
2022/03/10 09:15:08;;;;;;;16.23;11.17;;;7.60;76.80;;;;;;5035932;28;20197;-93
2022/03/10 09:17:33;;;;;;;15.70;10.57;;;7.80;84.80;;;;;;5036243;28;20249;-93
2022/03/10 09:19:59;;;;;;;16.73;10.30;;;8.00;48.50;;;;;;5037269;28;20177;-93
2022/03/10 09:22:25;;;;;;;17.17;11.33;;;8.10;23.20;;;;;;5034777;28;20177;-93
2022/03/10 09:24:52;;;;;;;16.30;11.00;;;8.20;19.40;;;;;;5034409;28;20201;-93
2022/03/10 09:27:18;;;;;;;18.27;11.00;;;8.30;27.40;;;;;;5031475;28;20215;-93
2022/03/10 09:29:44;;;;;;;22.03;11.27;;;8.30;30.00;;;;;;5032302;28;20177;-93
2022/03/10 09:32:10;;;;;;;15.00;11.00;;;8.30;15.90;;;;;;5038095;28;20197;-91
2022/03/10 09:34:35;;;;;;;18.50;11.80;;;8.50;10.30;;;;;;5038878;28;20253;-91
2022/03/10 09:37:01;;;;;;;19.50;11.07;;;8.60;1.00;;;;;;5038936;28;20173;-93
2022/03/10 09:39:27;;;;;;;17.67;12.03;;;8.70;1.00;;;;;;5038259;28;20172;-93
2022/03/10 09:41:56;;;;;;;19.97;11.00;;;8.90;1.00;;;;;;5038834;28;20192;-92
2022/03/10 09:44:21;;;;;;;20.23;12.37;;;9.10;1.00;;;;;;5038743;28;20153;-90
2022/03/10 09:46:52;;;;;;;20.77;11.53;;;8.90;1.00;;;;;;5038885;28;20165;-92
2022/03/10 09:49:21;;;;;;;18.00;12.17;;;9.20;1.00;;;;;;5038788;28;20214;-92
2022/03/10 09:51:50;;;;;;;18.07;12.13;;;9.40;1.00;;;;;;5038352;28;20197;-93
2022/03/10 09:54:16;;;;;;;18.53;11.73;;;9.60;1.00;;;;;;5034597;28;20185;-93
2022/03/10 09:56:43;;;;;;;22.30;12.20;;;9.60;1.00;;;;;;5034828;28;20199;-93
2022/03/10 09:59:09;;;;;;;21.70;13.00;;;9.70;1.00;;;;;;5036666;28;20195;-92
2022/03/10 10:01:35;;;;;;;21.03;12.53;;;9.80;1.00;;;;;;5036650;28;20181;-93
2022/03/10 10:04:00;;;;;;;19.23;12.23;;;9.90;1.00;;;;;;5036658;28;20237;-93
2022/03/10 10:06:26;;;;;;;20.80;12.93;;;10.00;1.00;;;;;;5036472;28;20181;-92
2022/03/10 10:08:56;;;;;;;19.57;12.43;;;10.00;1.00;;;;;;5037056;28;20196;-93
2022/03/10 10:11:40;;;;;;;22.53;12.73;;;10.30;1.00;;;;;;5037345;28;20205;-91
2022/03/10 10:14:05;;;;;;;23.03;13.37;;;10.20;1.00;;;;;;5037910;28;20157;-93
2022/03/10 10:16:31;;;;;;;19.07;12.77;;;10.40;1.00;;;;;;5037461;28;20196;-93
2022/03/10 10:19:00;;;;;;;20.63;12.13;;;10.40;1.00;;;;;;5037655;28;20257;-91
2022/03/10 10:21:25;;;;;;;20.40;11.67;;;10.50;1.00;;;;;;5038064;28;20173;-92
2022/03/10 10:23:53;;;;;;;20.47;13.80;;;10.80;1.00;;;;;;5037652;28;20165;-93
2022/03/10 10:26:25;;;;;;;19.77;12.43;;;10.70;1.00;;;;;;5037821;28;20177;-92
2022/03/10 10:28:54;;;;;;;20.20;12.73;;;10.80;1.00;;;;;;5037977;28;20200;-93
2022/03/10 10:31:22;;;;;;;19.57;13.07;;;10.90;1.00;;;;;;5037803;28;20201;-92
2022/03/10 10:34:14;;;;;;;20.13;13.17;;;11.00;1.00;;;;;;5037733;28;20165;-92
2022/03/10 10:36:41;;;;;;;19.30;12.13;;;11.00;1.00;;;;;;5038211;28;20164;-92
2022/03/10 10:39:12;;;;;;;20.27;12.57;;;11.20;1.00;;;;;;5037760;28;20153;-92
2022/03/10 10:41:41;;;;;;;19.27;12.77;;;11.20;1.00;;;;;;5038404;28;20172;-92
2022/03/10 10:44:15;;;;;;;20.53;12.30;;;11.40;1.00;;;;;;5037534;28;20162;-93
2022/03/10 10:46:44;;;;;;;20.27;12.40;;;11.40;1.00;;;;;;5037592;28;20219;-93
2022/03/10 10:49:16;;;;;;;20.33;12.47;;;11.60;1.00;;;;;;5037168;28;20157;-93
2022/03/10 10:51:47;;;;;;;20.07;12.40;;;11.50;1.00;;;;;;5037579;28;20204;-93
2022/03/10 10:54:25;;;;;;;20.57;13.20;;;11.70;1.00;;;;;;5037562;28;20165;-93
2022/03/10 10:56:53;;;;;;;17.90;11.17;;;11.90;1.00;;;;;;5037443;28;20199;-93
2022/03/10 10:59:25;;;;;;;21.43;12.33;;;11.80;1.00;;;;;;5037547;28;20230;-92
2022/03/10 11:02:02;;;;;;;19.70;12.87;;;12.00;1.00;;;;;;5037468;28;20172;-92
2022/03/10 11:04:34;;;;;;;21.07;12.77;;;12.20;1.00;;;;;;5038010;28;20149;-93
2022/03/10 11:07:00;;;;;;;20.53;13.33;;;12.20;1.00;;;;;;5037369;28;20180;-92
2022/03/10 11:09:33;;;;;;;18.87;13.13;;;12.30;1.00;;;;;;5037469;28;20181;-93
2022/03/10 11:11:59;;;;;;;19.00;12.63;;;12.40;1.00;;;;;;5037173;28;20220;-92
2022/03/10 11:14:26;;;;;;;19.23;11.37;;;12.50;1.00;;;;;;5036667;28;20176;-93
2022/03/10 11:16:52;;;;;;;20.27;12.67;;;12.50;1.00;;;;;;5036330;28;20185;-93
2022/03/10 11:19:25;;;;;;;20.57;13.20;;;12.70;1.00;;;;;;5037302;28;20166;-90
2022/03/10 11:22:02;;;;;;;22.30;12.23;;;12.90;1.00;;;;;;5036034;28;20192;-93
2022/03/10 11:25:03;;;;;;;18.90;11.93;;;12.80;1.00;;;;;;5037409;28;20176;-93
2022/03/10 11:27:39;;;;;;;19.53;12.53;;;12.90;1.00;;;;;;5037314;28;20164;-93
2022/03/10 11:30:09;;;;;;;17.60;12.40;;;13.00;1.00;;;;;;5037418;28;20200;-93
2022/03/10 11:32:35;;;;;;;22.40;12.80;;;13.10;1.00;;;;;;5038143;28;20222;-92
2022/03/10 11:35:02;;;;;;;20.07;12.17;;;13.20;1.00;;;;;;5037447;28;20173;-92
2022/03/10 11:37:41;;;;;;;20.40;12.87;;;13.20;1.00;;;;;;5037681;28;20158;-93
2022/03/10 11:40:15;;;;;;;19.43;12.43;;;13.30;1.00;;;;;;5037472;28;20168;-94
2022/03/10 11:42:41;;;;;;;19.47;12.97;;;13.20;1.00;;;;;;5038331;28;20158;-92
2022/03/10 11:45:19;;;;;;;18.70;12.90;;;13.40;1.00;;;;;;5037479;28;20188;-93
2022/03/10 11:47:45;;;;;;;24.00;13.90;;;13.40;99.90;;;;;;5037615;28;20192;-93
2022/03/10 11:50:20;;;;;;;20.23;12.50;;;13.50;99.90;;;;;;5037615;28;20158;-94
2022/03/10 11:52:57;;;;;;;22.10;13.50;;;13.60;99.90;;;;;;5037826;28;20197;-93
2022/03/10 11:55:36;;;;;;;20.77;12.60;;;13.70;99.90;;;;;;5037774;28;20207;-90
2022/03/10 11:58:05;;;;;;;17.77;12.70;;;13.70;99.90;;;;;;5037628;28;20244;-92
2022/03/10 12:00:39;;;;;;;22.57;12.67;;;13.60;99.90;;;;;;5038249;28;20189;-92
2022/03/10 12:03:06;;;;;;;17.27;12.37;;;13.80;99.90;;;;;;5041058;28;20219;-93
2022/03/10 12:05:51;;;;;;;18.83;13.00;;;13.80;99.90;;;;;;5040869;28;20298;-93
2022/03/10 12:08:21;;;;;;;17.93;12.50;;;14.00;99.90;;;;;;5040923;28;20153;-91
2022/03/10 12:10:49;;;;;;;16.87;12.73;;;14.00;99.90;;;;;;5040693;28;20201;-93
2022/03/10 12:13:32;;;;;;;18.93;11.87;;;14.10;99.90;;;;;;5041313;28;20161;-92
2022/03/10 12:16:00;;;;;;;16.67;11.90;;;14.10;99.90;;;;;;5040706;28;20213;-93
2022/03/10 12:18:30;;;;;;;18.50;12.17;;;14.20;99.90;;;;;;5061116;22;20250;-77
2022/03/10 12:20:57;;;;;;;20.70;13.23;;;14.20;99.90;;;;;;5055942;28;20286;-77
2022/03/10 12:23:26;;;;;;;18.77;12.60;;;14.20;99.90;;;;;;5058443;28;20520;-77
2022/03/10 12:25:58;;;;;;;17.13;11.80;;;14.30;99.90;;;;;;5055456;28;20179;-76
2022/03/10 12:28:40;;;;;;;21.27;14.07;;;14.30;99.90;;;;;;5054381;28;20199;-77
2022/03/10 12:31:12;;;;;;;19.43;12.90;;;14.30;99.90;;;;;;5055427;28;20203;-76
2022/03/10 12:33:49;;;;;;;20.77;13.67;;;14.40;99.90;;;;;;5054313;28;20187;-76
2022/03/10 12:36:26;;;;;;;15.87;11.43;;;14.50;99.90;;;;;;5055564;28;20235;-77
2022/03/10 12:38:52;;;;;;;16.77;11.13;;;14.50;99.90;;;;;;5055424;28;20719;-77
2022/03/10 12:41:18;;;;;;;16.27;11.43;;;14.50;99.90;;;;;;5055433;28;20223;-77
2022/03/10 12:43:51;;;;;;;13.50;10.10;;;14.60;99.90;;;;;;5055263;28;20172;-77
2022/03/10 12:46:17;;;;;;;18.27;10.83;;;14.60;99.90;;;;;;5053917;28;20263;-77
2022/03/10 12:48:57;;;;;;;17.17;10.60;;;14.70;99.90;;;;;;5055152;28;20255;-77